Time;durP1;ratioP1;P1;durP2;ratioP2;P2;SDS_P1;SDS_P2;PMS_P1;PMS_P2;Temp;Humidity;BMP_temperature;BMP_pressure;BME280_temperature;BME280_humidity;BME280_pressure;Samples;Min_cycle;Max_cycle;Signal;HPM_P1;HPM_P2
2022/03/08 00:01:00;;;;;;;11.20;7.03;;;4.10;99.90;;;;;;5040035;28;20059;-66
2022/03/08 00:03:27;;;;;;;10.82;6.55;;;4.10;99.90;;;;;;5048453;28;20072;-66
2022/03/08 00:05:53;;;;;;;10.63;6.63;;;4.10;99.90;;;;;;5039632;28;20041;-66
2022/03/08 00:08:19;;;;;;;8.10;5.93;;;4.00;99.90;;;;;;5031991;28;20052;-66
2022/03/08 00:10:45;;;;;;;10.80;6.03;;;4.10;99.90;;;;;;5046908;28;20504;-66
2022/03/08 00:13:10;;;;;;;10.73;6.38;;;4.10;99.90;;;;;;5047642;28;20048;-66
2022/03/08 00:15:36;;;;;;;10.85;6.25;;;3.90;99.90;;;;;;5034261;28;20502;-66
2022/03/08 00:18:02;;;;;;;8.07;6.15;;;3.90;99.90;;;;;;5044327;28;20049;-66
2022/03/08 00:20:28;;;;;;;16.23;6.53;;;3.90;99.90;;;;;;5047145;28;20048;-66
2022/03/08 00:22:54;;;;;;;11.00;5.93;;;3.90;99.90;;;;;;5044329;28;20051;-65
2022/03/08 00:25:20;;;;;;;16.42;6.60;;;3.80;99.90;;;;;;5029854;28;20045;-66
2022/03/08 00:27:47;;;;;;;18.27;7.53;;;3.80;99.90;;;;;;5043081;28;20044;-66
2022/03/08 00:30:18;;;;;;;14.18;6.45;;;3.80;99.90;;;;;;5046397;28;20059;-66
2022/03/08 00:32:44;;;;;;;16.77;7.45;;;3.80;99.90;;;;;;5032988;28;20045;-66
2022/03/08 00:35:11;;;;;;;14.32;6.20;;;3.70;99.90;;;;;;5046685;28;20049;-66
2022/03/08 00:37:37;;;;;;;15.60;6.47;;;3.70;99.90;;;;;;5036570;28;20085;-66
2022/03/08 00:40:06;;;;;;;11.02;6.95;;;3.60;99.90;;;;;;5040644;28;20044;-66
2022/03/08 00:42:32;;;;;;;11.75;6.93;;;3.70;99.90;;;;;;5027335;28;20076;-66
2022/03/08 00:44:57;;;;;;;13.18;7.40;;;3.60;99.90;;;;;;5046608;28;20076;-66
2022/03/08 00:47:23;;;;;;;15.20;7.40;;;3.60;99.90;;;;;;5044189;28;20443;-66
2022/03/08 00:49:48;;;;;;;16.85;7.53;;;3.60;99.90;;;;;;5027872;28;20053;-66
2022/03/08 00:52:14;;;;;;;12.32;7.63;;;3.60;99.90;;;;;;5051577;28;20098;-66
2022/03/08 00:54:39;;;;;;;12.98;7.07;;;3.60;99.90;;;;;;5050518;28;20551;-66
2022/03/08 00:57:05;;;;;;;11.05;7.47;;;3.60;99.90;;;;;;5041590;28;20050;-65
2022/03/08 00:59:31;;;;;;;11.07;6.10;;;3.50;99.90;;;;;;5032606;28;20057;-66
2022/03/08 01:01:58;;;;;;;11.93;7.38;;;3.50;99.90;;;;;;5031665;28;20072;-66
2022/03/08 01:04:23;;;;;;;13.00;7.65;;;3.50;99.90;;;;;;5035194;28;20124;-66
2022/03/08 01:06:49;;;;;;;12.40;6.63;;;3.50;99.90;;;;;;5051232;28;20120;-66
2022/03/08 01:09:15;;;;;;;9.80;6.40;;;3.40;99.90;;;;;;5034827;28;20045;-66
2022/03/08 01:11:42;;;;;;;9.10;6.15;;;3.50;99.90;;;;;;5031755;28;20068;-65
2022/03/08 01:14:08;;;;;;;7.75;5.32;;;3.40;99.90;;;;;;5038605;28;20042;-65
2022/03/08 01:16:35;;;;;;;12.10;6.85;;;3.40;99.90;;;;;;5033904;28;20065;-66
2022/03/08 01:19:02;;;;;;;19.85;7.45;;;3.40;99.90;;;;;;5032750;28;20128;-66
2022/03/08 01:21:28;;;;;;;11.35;6.95;;;3.40;99.90;;;;;;5037893;28;22483;-66
2022/03/08 01:23:53;;;;;;;10.05;6.50;;;3.40;99.90;;;;;;5030669;28;20076;-66
2022/03/08 01:26:19;;;;;;;10.88;6.80;;;3.40;99.90;;;;;;5043808;28;20033;-66
2022/03/08 01:28:45;;;;;;;8.75;6.20;;;3.30;99.90;;;;;;5051859;28;20128;-66
2022/03/08 01:31:10;;;;;;;12.73;7.18;;;3.30;99.90;;;;;;5048208;28;20124;-66
2022/03/08 01:33:36;;;;;;;10.98;6.40;;;3.20;99.90;;;;;;5031908;28;20080;-66
2022/03/08 01:36:02;;;;;;;12.05;7.00;;;3.30;99.90;;;;;;5041417;28;20049;-66
2022/03/08 01:38:28;;;;;;;9.68;6.45;;;3.20;99.90;;;;;;5041097;28;20033;-66
2022/03/08 01:40:53;;;;;;;9.00;5.63;;;3.20;99.90;;;;;;5050873;28;20047;-66
2022/03/08 01:43:19;;;;;;;15.70;6.57;;;3.20;99.90;;;;;;5050551;28;20044;-66
2022/03/08 01:45:45;;;;;;;8.05;5.70;;;3.20;99.90;;;;;;5039202;28;20080;-66
2022/03/08 01:48:11;;;;;;;11.40;7.05;;;3.20;99.90;;;;;;5044800;28;20037;-66
2022/03/08 01:50:36;;;;;;;11.38;6.88;;;3.10;99.90;;;;;;5034676;28;20041;-66
2022/03/08 01:53:03;;;;;;;10.07;6.43;;;3.10;99.90;;;;;;5030688;28;20057;-66
2022/03/08 01:55:28;;;;;;;11.50;6.88;;;3.10;99.90;;;;;;5030804;28;20060;-65
2022/03/08 01:57:54;;;;;;;11.43;7.53;;;3.10;99.90;;;;;;5041943;28;20045;-66
2022/03/08 02:00:23;;;;;;;11.73;7.13;;;3.10;99.90;;;;;;5030342;28;20069;-66
2022/03/08 02:02:49;;;;;;;9.50;6.63;;;3.00;99.90;;;;;;5037081;28;20041;-66
2022/03/08 02:05:14;;;;;;;11.65;6.88;;;3.10;99.90;;;;;;5048806;28;20723;-66
2022/03/08 02:07:40;;;;;;;9.18;6.35;;;3.00;99.90;;;;;;5043301;28;20041;-65
2022/03/08 02:10:07;;;;;;;8.98;6.82;;;3.00;99.90;;;;;;5039662;28;20073;-66
2022/03/08 02:12:33;;;;;;;12.27;6.70;;;3.00;99.90;;;;;;5030643;28;20041;-66
2022/03/08 02:14:58;;;;;;;8.65;5.85;;;3.00;99.90;;;;;;5038834;28;20042;-67
2022/03/08 02:17:24;;;;;;;8.80;6.45;;;2.90;99.90;;;;;;5030509;28;20042;-66
2022/03/08 02:19:50;;;;;;;11.02;7.25;;;3.00;99.90;;;;;;5029185;28;20611;-66
2022/03/08 02:22:15;;;;;;;19.88;6.90;;;2.90;99.90;;;;;;5033620;28;20509;-66
2022/03/08 02:24:41;;;;;;;12.23;7.22;;;3.00;99.90;;;;;;5032877;28;20053;-66
2022/03/08 02:27:07;;;;;;;9.10;6.55;;;3.00;99.90;;;;;;5034011;28;20041;-66
2022/03/08 02:29:33;;;;;;;10.48;6.70;;;2.90;99.90;;;;;;5031105;28;20053;-66
2022/03/08 02:31:59;;;;;;;8.75;6.50;;;2.90;99.90;;;;;;5031190;28;20394;-66
2022/03/08 02:34:24;;;;;;;13.18;7.53;;;2.90;99.90;;;;;;5029159;28;20045;-66
2022/03/08 02:36:59;;;;;;;10.00;6.93;;;2.90;99.90;;;;;;5048808;28;20074;-65
2022/03/08 02:39:25;;;;;;;12.57;7.45;;;2.90;99.90;;;;;;5033068;28;20068;-65
2022/03/08 02:41:50;;;;;;;10.07;6.60;;;2.90;99.90;;;;;;5034490;28;20481;-65
2022/03/08 02:44:16;;;;;;;12.10;7.95;;;2.80;99.90;;;;;;5044072;28;20033;-66
2022/03/08 02:46:41;;;;;;;9.25;6.50;;;2.80;99.90;;;;;;5029036;28;20118;-66
2022/03/08 02:49:08;;;;;;;13.45;7.47;;;2.80;99.90;;;;;;5036674;28;20055;-65
2022/03/08 02:51:33;;;;;;;16.02;7.78;;;2.70;99.90;;;;;;5040708;28;20139;-66
2022/03/08 02:53:59;;;;;;;14.52;7.47;;;2.80;99.90;;;;;;5030325;28;20084;-66
2022/03/08 02:56:24;;;;;;;12.95;7.90;;;2.80;99.90;;;;;;5042482;28;20135;-65
2022/03/08 02:58:50;;;;;;;14.77;7.07;;;2.80;99.90;;;;;;5034225;28;20041;-65
2022/03/08 03:01:15;;;;;;;10.02;6.63;;;2.70;99.90;;;;;;5047797;28;20132;-66
2022/03/08 03:03:41;;;;;;;13.23;7.70;;;2.70;99.90;;;;;;5038138;28;20511;-66
2022/03/08 03:06:06;;;;;;;10.27;7.35;;;2.70;99.90;;;;;;5040207;28;20048;-65
2022/03/08 03:08:32;;;;;;;14.10;7.93;;;2.60;99.90;;;;;;5050212;28;20524;-66
2022/03/08 03:10:57;;;;;;;13.38;7.47;;;2.60;99.90;;;;;;5048482;28;20068;-66
2022/03/08 03:13:23;;;;;;;11.38;6.93;;;2.60;99.90;;;;;;5048866;28;20067;-65
2022/03/08 03:15:48;;;;;;;11.48;7.57;;;2.60;99.90;;;;;;5049379;28;20110;-65
2022/03/08 03:18:14;;;;;;;10.32;7.53;;;2.60;99.90;;;;;;5043476;28;20041;-66
2022/03/08 03:20:40;;;;;;;12.77;7.93;;;2.50;99.90;;;;;;5030236;28;20134;-66
2022/03/08 03:23:06;;;;;;;12.98;7.80;;;2.50;99.90;;;;;;5029357;28;20505;-66
2022/03/08 03:25:31;;;;;;;13.98;8.30;;;2.60;99.90;;;;;;5035252;28;20052;-65
2022/03/08 03:27:57;;;;;;;11.40;8.00;;;2.50;99.90;;;;;;5043910;28;20401;-66
2022/03/08 03:30:23;;;;;;;12.50;8.32;;;2.50;99.90;;;;;;5047953;28;20575;-65
2022/03/08 03:32:48;;;;;;;12.77;7.75;;;2.50;99.90;;;;;;5041783;28;20060;-65
2022/03/08 03:35:14;;;;;;;13.40;7.70;;;2.60;99.90;;;;;;5034163;28;20048;-65
2022/03/08 03:37:40;;;;;;;12.95;8.38;;;2.60;99.90;;;;;;5044039;28;20045;-65
2022/03/08 03:40:07;;;;;;;11.85;7.80;;;2.70;99.90;;;;;;5046773;28;20041;-66
2022/03/08 03:42:32;;;;;;;13.13;8.38;;;2.60;99.90;;;;;;5031212;28;20068;-65
2022/03/08 03:44:58;;;;;;;13.43;8.30;;;2.60;99.90;;;;;;5028285;28;20068;-66
2022/03/08 03:47:23;;;;;;;13.70;8.63;;;2.60;99.90;;;;;;5034861;28;20348;-65
2022/03/08 03:49:49;;;;;;;12.68;8.93;;;2.60;99.90;;;;;;5045986;28;20053;-66
2022/03/08 03:52:15;;;;;;;13.57;8.50;;;2.60;99.90;;;;;;5047776;28;20049;-65
2022/03/08 03:54:40;;;;;;;15.35;9.50;;;2.60;99.90;;;;;;5049022;28;20427;-65
2022/03/08 03:57:08;;;;;;;12.65;8.13;;;2.60;99.90;;;;;;5037494;28;20563;-65
2022/03/08 03:59:33;;;;;;;13.30;9.50;;;2.70;99.90;;;;;;5046228;28;20056;-65
2022/03/08 04:01:59;;;;;;;17.80;9.63;;;2.70;99.90;;;;;;5048571;28;20056;-65
2022/03/08 04:04:24;;;;;;;14.35;9.27;;;2.70;99.90;;;;;;5042884;28;20487;-65
2022/03/08 04:06:50;;;;;;;13.88;10.38;;;2.70;99.90;;;;;;5036605;28;20547;-65
2022/03/08 04:09:15;;;;;;;16.52;11.02;;;2.80;99.90;;;;;;5048246;28;20049;-66
2022/03/08 04:11:41;;;;;;;16.00;9.77;;;2.90;99.90;;;;;;5049274;28;20048;-65
2022/03/08 04:14:07;;;;;;;16.40;9.70;;;2.80;99.90;;;;;;5029670;28;20033;-66
2022/03/08 04:16:32;;;;;;;16.05;10.43;;;2.90;99.90;;;;;;5029370;28;20605;-65
2022/03/08 04:18:58;;;;;;;16.08;10.10;;;2.80;99.90;;;;;;5029134;28;20612;-66
2022/03/08 04:21:23;;;;;;;14.43;10.43;;;2.70;99.90;;;;;;5025939;28;20164;-66
2022/03/08 04:23:49;;;;;;;19.30;10.63;;;2.70;99.90;;;;;;5034715;28;20049;-65
2022/03/08 04:26:14;;;;;;;14.70;10.55;;;2.70;99.90;;;;;;5028008;28;20048;-66
2022/03/08 04:28:40;;;;;;;16.27;10.60;;;2.70;99.90;;;;;;5033067;28;20049;-65
2022/03/08 04:31:05;;;;;;;15.75;9.88;;;2.70;99.90;;;;;;5031503;28;20041;-65
2022/03/08 04:33:31;;;;;;;15.45;10.88;;;2.70;99.90;;;;;;5043747;28;20048;-65
2022/03/08 04:35:57;;;;;;;14.45;10.00;;;2.60;99.90;;;;;;5030565;28;20128;-65
2022/03/08 04:38:22;;;;;;;22.27;10.77;;;2.60;99.90;;;;;;5042243;28;20037;-66
2022/03/08 04:40:48;;;;;;;18.73;10.98;;;2.60;99.90;;;;;;5047328;28;20153;-65
2022/03/08 04:43:13;;;;;;;17.90;11.60;;;2.50;99.90;;;;;;5034513;28;20053;-65
2022/03/08 04:45:39;;;;;;;17.48;10.93;;;2.60;99.90;;;;;;5028473;28;20049;-65
2022/03/08 04:48:05;;;;;;;23.52;12.02;;;2.60;99.90;;;;;;5028919;28;20081;-65
2022/03/08 04:50:30;;;;;;;17.13;11.48;;;2.50;99.90;;;;;;5034855;28;20492;-65
2022/03/08 04:52:56;;;;;;;14.80;10.57;;;2.40;99.90;;;;;;5028273;28;20061;-65
2022/03/08 04:55:21;;;;;;;16.80;10.68;;;2.50;99.90;;;;;;5045144;28;20048;-65
2022/03/08 04:57:47;;;;;;;14.63;10.25;;;2.40;99.90;;;;;;5041819;28;20506;-66
2022/03/08 05:00:14;;;;;;;18.38;11.40;;;2.50;99.90;;;;;;5029017;28;20053;-65
2022/03/08 05:02:45;;;;;;;18.02;12.38;;;2.40;99.90;;;;;;5034887;28;20045;-65
2022/03/08 05:05:12;;;;;;;20.38;11.38;;;2.40;99.90;;;;;;5045386;28;20091;-65
2022/03/08 05:07:39;;;;;;;23.13;13.63;;;2.40;99.90;;;;;;5048293;28;20041;-65
2022/03/08 05:10:06;;;;;;;17.83;12.13;;;2.40;99.90;;;;;;5028727;28;20049;-65
2022/03/08 05:12:33;;;;;;;17.73;12.25;;;2.40;99.90;;;;;;5040677;28;20029;-65
2022/03/08 05:14:59;;;;;;;16.40;11.00;;;2.40;99.90;;;;;;5048030;28;20041;-66
2022/03/08 05:17:25;;;;;;;16.70;12.32;;;2.40;99.90;;;;;;5033037;28;20049;-66
2022/03/08 05:19:51;;;;;;;17.50;11.77;;;2.40;99.90;;;;;;5028240;28;20052;-65
2022/03/08 05:22:17;;;;;;;16.67;12.05;;;2.40;99.90;;;;;;5026287;28;20403;-65
2022/03/08 05:24:43;;;;;;;17.45;11.65;;;2.40;99.90;;;;;;5027978;28;20518;-65
2022/03/08 05:27:08;;;;;;;16.85;11.65;;;2.40;99.90;;;;;;5027769;28;20045;-66
2022/03/08 05:29:34;;;;;;;18.13;11.65;;;2.50;99.90;;;;;;5027677;28;20653;-65
2022/03/08 05:32:00;;;;;;;21.05;12.27;;;2.50;99.90;;;;;;5037511;28;20051;-65
2022/03/08 05:34:26;;;;;;;20.65;12.23;;;2.50;99.90;;;;;;5031001;28;20128;-65
2022/03/08 05:36:52;;;;;;;21.23;12.38;;;2.40;99.90;;;;;;5028700;28;20052;-65
2022/03/08 05:39:17;;;;;;;19.63;12.38;;;2.40;99.90;;;;;;5031172;28;20552;-66
2022/03/08 05:41:43;;;;;;;17.73;12.43;;;2.40;99.90;;;;;;5043445;28;20053;-65
2022/03/08 05:44:09;;;;;;;20.02;11.52;;;2.30;99.90;;;;;;5048881;28;20041;-65
2022/03/08 05:46:35;;;;;;;20.40;13.15;;;2.40;99.90;;;;;;5033107;28;20048;-65
2022/03/08 05:49:01;;;;;;;19.60;12.38;;;2.30;99.90;;;;;;5041786;28;20115;-65
2022/03/08 05:51:26;;;;;;;17.00;11.10;;;2.30;99.90;;;;;;5050092;28;20061;-66
2022/03/08 05:53:52;;;;;;;17.80;11.45;;;2.20;99.90;;;;;;5048184;28;20051;-65
2022/03/08 05:56:17;;;;;;;25.05;13.27;;;2.30;99.90;;;;;;5033831;28;20041;-65
2022/03/08 05:58:43;;;;;;;20.98;11.15;;;2.30;99.90;;;;;;5049159;28;20072;-65
2022/03/08 06:01:08;;;;;;;21.10;12.77;;;2.40;99.90;;;;;;5047766;28;20111;-65
2022/03/08 06:03:34;;;;;;;17.35;11.60;;;2.30;99.90;;;;;;5038749;28;20138;-65
2022/03/08 06:05:59;;;;;;;16.15;12.35;;;2.30;99.90;;;;;;5043220;28;20053;-65
2022/03/08 06:08:25;;;;;;;16.65;12.27;;;2.20;99.90;;;;;;5037193;28;20110;-65
2022/03/08 06:10:50;;;;;;;17.88;12.10;;;2.20;99.90;;;;;;5051136;28;20067;-65
2022/03/08 06:13:16;;;;;;;17.45;12.68;;;2.20;99.90;;;;;;5049654;28;20053;-65
2022/03/08 06:15:41;;;;;;;21.45;15.20;;;2.30;99.90;;;;;;5041452;28;20528;-65
2022/03/08 06:18:07;;;;;;;25.20;17.30;;;2.30;99.90;;;;;;5030149;28;20447;-65
2022/03/08 06:20:33;;;;;;;22.30;15.13;;;2.30;99.90;;;;;;5032560;28;20540;-65
2022/03/08 06:22:58;;;;;;;18.83;13.73;;;2.30;99.90;;;;;;5050073;28;20091;-65
2022/03/08 06:25:24;;;;;;;24.70;13.35;;;2.40;99.90;;;;;;5032336;28;20505;-65
2022/03/08 06:27:49;;;;;;;18.65;14.32;;;2.50;99.90;;;;;;5030231;28;20413;-65
2022/03/08 06:30:15;;;;;;;22.10;17.55;;;2.50;99.90;;;;;;5029064;28;20065;-65
2022/03/08 06:32:41;;;;;;;21.33;13.82;;;2.50;99.90;;;;;;5034234;28;20042;-65
2022/03/08 06:35:07;;;;;;;24.23;15.27;;;2.50;99.90;;;;;;5031466;28;20370;-65
2022/03/08 06:37:32;;;;;;;15.63;11.75;;;2.50;99.90;;;;;;5048901;28;20063;-65
2022/03/08 06:39:58;;;;;;;19.38;12.27;;;2.50;99.90;;;;;;5049639;28;20040;-66
2022/03/08 06:42:24;;;;;;;24.55;13.00;;;2.60;99.90;;;;;;5050032;28;20049;-65
2022/03/08 06:44:49;;;;;;;18.25;12.07;;;2.50;99.90;;;;;;5038276;28;20048;-65
2022/03/08 06:47:15;;;;;;;18.80;12.63;;;2.50;99.90;;;;;;5041662;28;20047;-65
2022/03/08 06:49:41;;;;;;;16.38;10.63;;;2.50;99.90;;;;;;5049854;28;20076;-65
2022/03/08 06:52:09;;;;;;;19.65;12.35;;;2.60;99.90;;;;;;5044065;28;20067;-65
2022/03/08 06:54:35;;;;;;;14.82;10.30;;;2.60;99.90;;;;;;5034575;28;20033;-65
2022/03/08 06:57:01;;;;;;;18.60;11.85;;;2.70;99.90;;;;;;5028800;28;20045;-65
2022/03/08 06:59:27;;;;;;;19.52;12.68;;;2.60;99.90;;;;;;5032088;28;20025;-66
2022/03/08 07:01:52;;;;;;;20.40;13.02;;;2.70;99.90;;;;;;5043449;28;20049;-65
2022/03/08 07:04:18;;;;;;;18.60;11.55;;;2.70;99.90;;;;;;5041932;28;20045;-65
2022/03/08 07:06:44;;;;;;;17.20;11.18;;;2.80;99.90;;;;;;5039200;28;20048;-65
2022/03/08 07:09:10;;;;;;;17.35;11.02;;;2.80;99.90;;;;;;5036348;28;20041;-65
2022/03/08 07:11:36;;;;;;;20.92;13.73;;;2.80;99.90;;;;;;5034091;28;20045;-65
2022/03/08 07:14:03;;;;;;;19.90;13.75;;;2.90;99.90;;;;;;5049493;28;20041;-65
2022/03/08 07:16:28;;;;;;;15.40;11.48;;;2.90;99.90;;;;;;5048849;28;20085;-65
2022/03/08 07:18:54;;;;;;;13.63;10.35;;;3.00;99.90;;;;;;5049898;28;20077;-65
2022/03/08 07:21:20;;;;;;;13.23;10.32;;;3.00;99.90;;;;;;5043596;28;20048;-65
2022/03/08 07:23:45;;;;;;;20.80;12.60;;;3.10;99.90;;;;;;5035964;28;20037;-65
2022/03/08 07:26:11;;;;;;;17.33;11.63;;;3.20;99.90;;;;;;5027963;28;20103;-65
2022/03/08 07:28:36;;;;;;;14.52;10.38;;;3.30;99.90;;;;;;5029775;28;20477;-65
2022/03/08 07:31:02;;;;;;;18.40;12.57;;;3.40;99.90;;;;;;5036699;28;20118;-65
2022/03/08 07:33:28;;;;;;;17.13;11.35;;;3.40;99.90;;;;;;5038448;28;20041;-65
2022/03/08 07:35:54;;;;;;;19.70;12.38;;;3.50;99.90;;;;;;5034595;28;20049;-65
2022/03/08 07:38:19;;;;;;;16.00;10.30;;;3.50;99.90;;;;;;5031298;28;20034;-65
2022/03/08 07:40:45;;;;;;;17.20;11.73;;;3.60;99.90;;;;;;5032009;28;20053;-65
2022/03/08 07:43:10;;;;;;;15.68;10.68;;;3.70;99.90;;;;;;5042243;28;20044;-65
2022/03/08 07:45:36;;;;;;;13.05;9.23;;;3.80;99.90;;;;;;5049485;28;20396;-65
2022/03/08 07:48:04;;;;;;;16.58;11.40;;;3.90;99.90;;;;;;5049670;28;20041;-65
2022/03/08 07:50:31;;;;;;;19.80;11.55;;;3.80;99.90;;;;;;5048058;28;20152;-65
2022/03/08 07:52:59;;;;;;;12.23;9.32;;;3.90;99.90;;;;;;5048399;28;20135;-65
2022/03/08 07:55:26;;;;;;;15.57;11.75;;;4.00;99.90;;;;;;5034929;28;20660;-65
2022/03/08 07:57:52;;;;;;;14.95;11.27;;;4.00;99.90;;;;;;5041259;28;20067;-65
2022/03/08 08:00:18;;;;;;;18.88;10.85;;;4.00;99.90;;;;;;5040543;28;20041;-65
2022/03/08 08:02:43;;;;;;;23.35;14.68;;;4.10;99.90;;;;;;5033877;28;20400;-65
2022/03/08 08:05:09;;;;;;;26.85;17.25;;;4.20;99.90;;;;;;5032394;28;20639;-66
2022/03/08 08:07:35;;;;;;;20.83;12.07;;;4.20;99.90;;;;;;5048342;28;20045;-65
2022/03/08 08:10:01;;;;;;;15.95;10.52;;;4.30;99.90;;;;;;5036212;28;20049;-65
2022/03/08 08:12:26;;;;;;;12.52;9.68;;;4.30;99.90;;;;;;5028284;28;20051;-65
2022/03/08 08:14:52;;;;;;;13.85;9.90;;;4.40;99.90;;;;;;5028998;28;20400;-65
2022/03/08 08:17:18;;;;;;;15.13;8.90;;;4.40;99.90;;;;;;5032641;28;20051;-65
2022/03/08 08:19:43;;;;;;;15.15;10.50;;;4.60;99.90;;;;;;5048075;28;20041;-65
2022/03/08 08:22:09;;;;;;;16.30;10.63;;;4.50;99.90;;;;;;5047110;28;20041;-66
2022/03/08 08:24:35;;;;;;;12.82;10.25;;;4.50;99.90;;;;;;5037663;28;20124;-65
2022/03/08 08:27:01;;;;;;;13.13;8.85;;;4.60;99.90;;;;;;5028294;28;20140;-65
2022/03/08 08:29:26;;;;;;;12.23;8.75;;;4.60;99.90;;;;;;5028138;28;20442;-65
2022/03/08 08:31:52;;;;;;;13.68;9.95;;;4.70;99.90;;;;;;5038319;28;20041;-65
2022/03/08 08:34:18;;;;;;;17.92;10.32;;;4.80;99.90;;;;;;5029089;28;20042;-66
2022/03/08 08:36:46;;;;;;;10.15;7.85;;;4.80;99.90;;;;;;5028763;28;20045;-66
2022/03/08 08:39:14;;;;;;;11.95;8.52;;;4.90;99.90;;;;;;5035593;28;20048;-65
2022/03/08 08:41:43;;;;;;;13.02;8.27;;;4.90;99.90;;;;;;5027963;28;20049;-66
2022/03/08 08:44:09;;;;;;;11.88;8.95;;;5.00;99.90;;;;;;5040443;28;20052;-65
2022/03/08 08:46:35;;;;;;;11.13;8.77;;;5.10;99.90;;;;;;5031704;28;20072;-66
2022/03/08 08:49:01;;;;;;;13.30;9.48;;;5.20;99.90;;;;;;5033287;28;20477;-66
2022/03/08 08:51:26;;;;;;;12.07;9.32;;;5.20;99.90;;;;;;5038446;28;20072;-65
2022/03/08 08:53:52;;;;;;;17.45;8.80;;;5.20;99.90;;;;;;5032683;28;20183;-65
2022/03/08 08:56:18;;;;;;;12.13;8.50;;;5.40;99.90;;;;;;5040443;28;20441;-65
2022/03/08 08:58:43;;;;;;;13.50;8.57;;;5.60;99.90;;;;;;5037204;28;20049;-66
2022/03/08 09:01:09;;;;;;;13.02;8.68;;;5.70;99.90;;;;;;5031527;28;20045;-65
2022/03/08 09:03:34;;;;;;;10.65;8.55;;;5.70;99.90;;;;;;5045434;28;20044;-65
2022/03/08 09:06:00;;;;;;;13.35;8.93;;;5.80;99.90;;;;;;5045078;28;20390;-66
2022/03/08 09:08:26;;;;;;;13.73;8.68;;;5.80;99.90;;;;;;5031600;28;20037;-64
2022/03/08 09:10:53;;;;;;;13.57;8.55;;;5.90;99.90;;;;;;5031253;28;20112;-64
2022/03/08 09:13:18;;;;;;;9.38;7.32;;;6.00;99.90;;;;;;5031201;28;20126;-63
2022/03/08 09:15:44;;;;;;;10.60;6.68;;;6.10;99.90;;;;;;5036245;28;20136;-64
2022/03/08 09:18:10;;;;;;;9.75;7.20;;;6.30;99.90;;;;;;5035060;28;20049;-63
2022/03/08 09:20:35;;;;;;;10.45;7.53;;;6.30;99.90;;;;;;5037896;28;20114;-64
2022/03/08 09:23:01;;;;;;;11.43;7.07;;;6.30;99.90;;;;;;5035559;28;20424;-64
2022/03/08 09:25:27;;;;;;;10.07;6.50;;;6.40;99.90;;;;;;5038196;28;20481;-63
2022/03/08 09:27:53;;;;;;;9.65;7.82;;;6.40;99.90;;;;;;5042057;28;20132;-63
2022/03/08 09:30:19;;;;;;;11.20;6.80;;;6.40;99.90;;;;;;5039812;28;20127;-64
2022/03/08 09:32:45;;;;;;;11.25;7.38;;;6.50;99.90;;;;;;5031658;28;20045;-63
2022/03/08 09:35:11;;;;;;;8.70;7.00;;;6.80;99.90;;;;;;5035166;28;20059;-63
2022/03/08 09:37:36;;;;;;;12.27;7.00;;;7.70;99.90;;;;;;5030849;28;20037;-65
2022/03/08 09:40:03;;;;;;;11.45;7.68;;;8.50;99.90;;;;;;5032613;28;20077;-65
2022/03/08 09:42:30;;;;;;;9.70;6.60;;;9.20;99.90;;;;;;5032429;28;20029;-65
2022/03/08 09:44:57;;;;;;;7.32;6.47;;;10.00;99.90;;;;;;5034956;28;20126;-64
2022/03/08 09:47:22;;;;;;;10.23;6.43;;;10.40;99.90;;;;;;5036811;28;20041;-63
2022/03/08 09:49:49;;;;;;;9.65;7.22;;;10.80;97.20;;;;;;5038627;28;20119;-64
2022/03/08 09:52:17;;;;;;;8.30;6.40;;;11.20;96.30;;;;;;5039055;28;20132;-63
2022/03/08 09:54:43;;;;;;;7.25;6.25;;;11.60;94.70;;;;;;5036477;28;20404;-64
2022/03/08 09:57:14;;;;;;;15.30;7.10;;;11.60;94.50;;;;;;5030145;28;20033;-65
2022/03/08 09:59:40;;;;;;;9.90;5.68;;;11.90;91.00;;;;;;5029182;28;20052;-65
2022/03/08 10:02:06;;;;;;;8.73;5.82;;;12.20;92.70;;;;;;5037603;28;20132;-65
2022/03/08 10:04:32;;;;;;;6.28;5.38;;;12.20;91.10;;;;;;5041098;28;20125;-64
2022/03/08 10:06:58;;;;;;;8.18;6.40;;;12.40;88.40;;;;;;5038981;28;20088;-64
2022/03/08 10:09:24;;;;;;;7.80;5.00;;;12.50;90.40;;;;;;5035653;28;20369;-64
2022/03/08 10:11:51;;;;;;;6.97;5.05;;;12.40;85.50;;;;;;5031790;28;20044;-64
2022/03/08 10:14:37;;;;;;;8.05;5.10;;;12.40;90.00;;;;;;5033258;28;20053;-64
2022/03/08 10:17:04;;;;;;;6.63;5.13;;;12.10;85.50;;;;;;5040580;28;20033;-64
2022/03/08 10:19:29;;;;;;;6.00;5.00;;;12.20;90.60;;;;;;5029273;28;20718;-64
2022/03/08 10:21:57;;;;;;;6.60;5.78;;;11.80;81.90;;;;;;5042863;28;20128;-64
2022/03/08 10:24:29;;;;;;;7.13;4.45;;;11.50;85.20;;;;;;5033229;28;20429;-64
2022/03/08 10:27:01;;;;;;;9.38;4.90;;;11.50;85.60;;;;;;5029373;28;20057;-64
2022/03/08 10:29:29;;;;;;;7.32;5.40;;;11.40;84.80;;;;;;5030620;28;20056;-64
2022/03/08 10:32:08;;;;;;;8.50;5.28;;;11.40;83.60;;;;;;5030599;28;20085;-65
2022/03/08 10:34:36;;;;;;;5.57;4.68;;;11.20;81.00;;;;;;5033282;28;20049;-65
2022/03/08 10:37:17;;;;;;;8.95;5.13;;;11.00;84.90;;;;;;5030075;28;20050;-64
2022/03/08 10:39:53;;;;;;;5.75;4.30;;;11.30;83.50;;;;;;5031994;28;20044;-65
2022/03/08 10:42:26;;;;;;;9.25;4.43;;;11.30;87.60;;;;;;5044791;28;20076;-64
2022/03/08 10:44:59;;;;;;;7.47;4.10;;;11.20;89.20;;;;;;5038157;28;20397;-64
2022/03/08 10:47:24;;;;;;;;;;;11.20;82.80;;;;;;5036476;28;20076;-64
2022/03/08 10:49:56;;;;;;;4.72;4.05;;;11.20;84.30;;;;;;5039473;28;19921;-64
2022/03/08 10:52:33;;;;;;;6.40;4.55;;;11.20;84.00;;;;;;5034067;28;20068;-63
2022/03/08 10:55:51;;;;;;;4.78;4.13;;;11.40;86.40;;;;;;5029076;28;20053;-64
2022/03/08 10:58:18;;;;;;;6.28;4.68;;;11.60;86.20;;;;;;4987513;28;20579;-64
2022/03/08 11:00:47;;;;;;;6.35;4.80;;;11.60;82.80;;;;;;5029030;28;20053;-64
2022/03/08 11:03:15;;;;;;;6.15;4.53;;;11.60;86.40;;;;;;5034033;28;20041;-65
2022/03/08 11:05:49;;;;;;;5.50;4.13;;;11.80;81.80;;;;;;5036131;28;20049;-66
2022/03/08 11:08:17;;;;;;;9.95;4.75;;;11.80;84.30;;;;;;5031861;28;20053;-65
2022/03/08 11:10:44;;;;;;;7.82;5.05;;;11.60;80.10;;;;;;5042640;28;20040;-64
2022/03/08 11:13:11;;;;;;;9.75;5.32;;;11.80;81.40;;;;;;5039331;28;20417;-64
2022/03/08 11:15:39;;;;;;;6.95;4.90;;;11.80;78.90;;;;;;5047262;28;20048;-64
2022/03/08 11:18:08;;;;;;;9.75;4.47;;;11.90;79.40;;;;;;5037871;28;20045;-64
2022/03/08 11:20:34;;;;;;;8.05;5.85;;;11.90;78.20;;;;;;5031019;28;20081;-64
2022/03/08 11:23:01;;;;;;;6.55;4.90;;;12.00;82.20;;;;;;5047482;28;20768;-64
2022/03/08 11:25:32;;;;;;;7.20;4.82;;;12.20;81.70;;;;;;5034510;28;20050;-64
2022/03/08 11:27:59;;;;;;;5.85;4.47;;;12.30;82.30;;;;;;5029843;28;20061;-64
2022/03/08 11:30:32;;;;;;;5.32;4.00;;;12.60;82.00;;;;;;5029188;28;20100;-64
2022/03/08 11:33:14;;;;;;;9.73;5.15;;;12.70;79.40;;;;;;5032911;28;20149;-64
2022/03/08 11:35:57;;;;;;;5.68;4.72;;;12.70;76.90;;;;;;5028481;28;20535;-64
2022/03/08 11:38:23;;;;;;;5.95;4.72;;;12.70;77.10;;;;;;5027865;28;20080;-64
2022/03/08 11:40:55;;;;;;;5.68;4.30;;;12.90;77.20;;;;;;5029334;28;20052;-64
2022/03/08 11:43:35;;;;;;;6.00;5.32;;;13.10;78.90;;;;;;5027501;28;20049;-64
2022/03/08 11:46:16;;;;;;;6.22;4.88;;;13.20;77.00;;;;;;5036386;28;20679;-64
2022/03/08 11:48:56;;;;;;;6.00;4.53;;;13.20;74.90;;;;;;5033428;28;20045;-64
2022/03/08 11:51:23;;;;;;;17.40;5.90;;;13.30;74.00;;;;;;5035180;28;20053;-65
2022/03/08 11:54:03;;;;;;;7.28;4.07;;;13.50;75.30;;;;;;5028443;28;20073;-65
2022/03/08 11:56:29;;;;;;;4.88;4.03;;;13.70;77.30;;;;;;5028487;28;20132;-65
2022/03/08 11:59:08;;;;;;;6.05;4.68;;;13.80;74.00;;;;;;5030198;28;20135;-65
2022/03/08 12:01:36;;;;;;;8.27;4.82;;;13.90;75.40;;;;;;5028438;28;20053;-65
2022/03/08 12:04:11;;;;;;;9.68;5.40;;;14.00;75.60;;;;;;5035878;28;20041;-65
2022/03/08 12:06:38;;;;;;;9.45;5.13;;;14.20;73.30;;;;;;5040009;28;20099;-66
2022/03/08 12:09:09;;;;;;;7.10;4.60;;;14.30;73.50;;;;;;5036325;28;20065;-65
2022/03/08 12:11:59;;;;;;;5.22;4.57;;;14.40;72.70;;;;;;5036562;28;20493;-65
2022/03/08 12:14:31;;;;;;;5.20;4.20;;;14.60;75.20;;;;;;5027075;28;20642;-65
2022/03/08 12:17:07;;;;;;;7.75;4.25;;;14.70;75.80;;;;;;5037479;28;20445;-65
2022/03/08 12:19:38;;;;;;;6.82;4.50;;;14.80;69.00;;;;;;5032445;28;20045;-65
2022/03/08 12:22:15;;;;;;;6.05;4.32;;;14.80;69.20;;;;;;5032174;28;20439;-65
2022/03/08 12:24:46;;;;;;;4.30;3.83;;;15.10;66.90;;;;;;5031724;28;20048;-65
2022/03/08 12:27:12;;;;;;;5.10;4.28;;;15.00;67.10;;;;;;5031644;28;20055;-65
2022/03/08 12:29:46;;;;;;;8.13;4.38;;;15.20;69.20;;;;;;5031045;28;20037;-65
2022/03/08 12:32:23;;;;;;;6.47;4.60;;;15.40;67.40;;;;;;5027445;28;20069;-65
2022/03/08 12:34:54;;;;;;;5.32;4.15;;;15.40;66.60;;;;;;5034477;28;20123;-65
2022/03/08 12:37:42;;;;;;;5.63;3.47;;;15.10;67.60;;;;;;5027003;28;20053;-65
2022/03/08 12:40:10;;;;;;;5.32;4.22;;;15.30;70.20;;;;;;5028050;28;20049;-65
2022/03/08 12:42:39;;;;;;;9.60;4.45;;;15.30;66.70;;;;;;5028663;28;20485;-65
2022/03/08 12:45:12;;;;;;;8.52;4.22;;;15.20;68.40;;;;;;5036187;28;20053;-65